Flugwetter

[source: ADDS]
METAR
LOWL 210150Z AUTO VRB01KT 2000 -SN FEW002 SCT003 BKN006 M00/M00 Q0999 =
TAF
TAF LOWL 202315Z 2100/2124 25006KT 5000 -SN SCT007 BKN017 TX00/2114Z TNM01/2200Z TEMPO 2100/2108 29012KT 2000 SN BKN014 PROB30 TEMPO 2101/2105 0600 SN VV006 TEMPO 2108/2115 28015G25KT 8000 -SNRA SCT015 BKN035 TEMPO 2115/2124 4000 -SHSN =